Altheimer, Arkansas
Current Conditions -  °F | °C
As of 5:27 AM on Thursday 18 Dec 2014 (Local Time) from KPBF Reporting Station
Overcast Overcast  
Wind Chill: 34°   Ceiling: 800
Heat Index: 39°   Visibility: 10mi
Dew Point: 36°   Wind: 7mph
Humidity: 89%   Direction: 100°E
Pressure: 30.2"   Gusts: NA
Location:  34.32°N, 91.85°W
Report Text: KPBF 181127Z AUTO 10006KT 10SM BKN008 OVC050 04/02 A3020 RMK AO2 RAE07 P0000 T00390022
Loading
Personal Weather Stations






























Interactive Weather Map New forecast layout! Learn more

10-Day Weather Forecast

Advertisements
Track Severe Weather on mobile